In Rescue
 
Open Full Screen Window  High Contrast Mode
Wind Gusting 00 knots
05
October 03, 2023 11:21 PM CDT
Present Weather: Thunderstorms in the Vicinity
Weather Information
Wind Direction
  120 °
Wind Speed
  05 kt (6 mph)
Wind Gust
  00 kt (0 mph)
Altimeter
29.70 in
Visibility
10 SM
Temperature
18° C
64° F
Dewpoint
16° C
61° F
Humidity
88%
Sky Condition
Overcast @ 11,000 ft
Broken @ 6,500 ft
VFR

METAR KCBG 040421Z AUTO 12005KT 10SM VCTS BKN065 OVC110 18/16 A2970 RMK AO2 LTG DSNT S AND SW

FAA Disclaimer: The data displayed is for advisory purposes only and is not to be used for flight planning or operations.